sensor_id;sensor_type;location;lat;lon;timestamp;temperature;humidity
70947;DHT22;58605;48.700;8.760;2024-02-15T00:00:47;8.10;99.90
70947;DHT22;58605;48.700;8.760;2024-02-15T00:03:14;8.00;99.90
70947;DHT22;58605;48.700;8.760;2024-02-15T00:05:40;8.10;99.90
70947;DHT22;58605;48.700;8.760;2024-02-15T00:08:08;8.00;99.90
70947;DHT22;58605;48.700;8.760;2024-02-15T00:10:35;8.10;99.90
70947;DHT22;58605;48.700;8.760;2024-02-15T00:13:01;8.30;99.90
70947;DHT22;58605;48.700;8.760;2024-02-15T00:15:29;8.50;99.90
70947;DHT22;58605;48.700;8.760;2024-02-15T00:17:55;8.70;99.90
70947;DHT22;58605;48.700;8.760;2024-02-15T00:20:21;8.90;99.90
70947;DHT22;58605;48.700;8.760;2024-02-15T00:22:48;9.00;99.90
70947;DHT22;58605;48.700;8.760;2024-02-15T00:25:16;9.10;99.80
70947;DHT22;58605;48.700;8.760;2024-02-15T00:27:42;9.20;99.00
70947;DHT22;58605;48.700;8.760;2024-02-15T00:30:09;9.40;98.30
70947;DHT22;58605;48.700;8.760;2024-02-15T00:32:37;9.20;98.10
70947;DHT22;58605;48.700;8.760;2024-02-15T00:35:04;8.90;98.70
70947;DHT22;58605;48.700;8.760;2024-02-15T00:37:35;8.90;99.20
70947;DHT22;58605;48.700;8.760;2024-02-15T00:40:01;9.00;99.10
70947;DHT22;58605;48.700;8.760;2024-02-15T00:42:29;9.40;97.70
70947;DHT22;58605;48.700;8.760;2024-02-15T00:44:57;9.40;97.80
70947;DHT22;58605;48.700;8.760;2024-02-15T00:47:23;9.40;97.80
70947;DHT22;58605;48.700;8.760;2024-02-15T00:49:51;9.40;97.50
70947;DHT22;58605;48.700;8.760;2024-02-15T00:52:17;9.40;97.30
70947;DHT22;58605;48.700;8.760;2024-02-15T00:54:44;9.50;96.90
70947;DHT22;58605;48.700;8.760;2024-02-15T00:57:10;9.60;96.50
70947;DHT22;58605;48.700;8.760;2024-02-15T00:59:37;9.60;96.40
70947;DHT22;58605;48.700;8.760;2024-02-15T01:02:04;9.60;96.50
70947;DHT22;58605;48.700;8.760;2024-02-15T01:04:31;9.60;96.10
70947;DHT22;58605;48.700;8.760;2024-02-15T01:06:58;9.60;96.10
70947;DHT22;58605;48.700;8.760;2024-02-15T01:09:25;9.60;95.80
70947;DHT22;58605;48.700;8.760;2024-02-15T01:11:58;9.50;95.50
70947;DHT22;58605;48.700;8.760;2024-02-15T01:14:24;9.50;95.60
70947;DHT22;58605;48.700;8.760;2024-02-15T01:16:56;9.40;96.40
70947;DHT22;58605;48.700;8.760;2024-02-15T01:19:23;9.20;96.50
70947;DHT22;58605;48.700;8.760;2024-02-15T01:21:49;9.10;97.10
70947;DHT22;58605;48.700;8.760;2024-02-15T01:24:16;9.00;97.60
70947;DHT22;58605;48.700;8.760;2024-02-15T01:26:43;8.90;97.80
70947;DHT22;58605;48.700;8.760;2024-02-15T01:29:09;8.80;98.40
70947;DHT22;58605;48.700;8.760;2024-02-15T01:31:38;8.80;98.50
70947;DHT22;58605;48.700;8.760;2024-02-15T01:34:04;8.80;98.60
70947;DHT22;58605;48.700;8.760;2024-02-15T01:36:30;8.80;98.40
70947;DHT22;58605;48.700;8.760;2024-02-15T01:38:57;8.80;98.70
70947;DHT22;58605;48.700;8.760;2024-02-15T01:41:24;8.80;98.40
70947;DHT22;58605;48.700;8.760;2024-02-15T01:43:50;8.80;98.40
70947;DHT22;58605;48.700;8.760;2024-02-15T01:46:17;8.90;97.90
70947;DHT22;58605;48.700;8.760;2024-02-15T01:48:46;8.90;97.70
70947;DHT22;58605;48.700;8.760;2024-02-15T01:51:14;8.80;97.20
70947;DHT22;58605;48.700;8.760;2024-02-15T01:53:42;8.60;97.20
70947;DHT22;58605;48.700;8.760;2024-02-15T01:56:08;8.50;97.10
70947;DHT22;58605;48.700;8.760;2024-02-15T01:58:39;8.20;98.00
70947;DHT22;58605;48.700;8.760;2024-02-15T02:04:28;7.80;98.60
70947;DHT22;58605;48.700;8.760;2024-02-15T02:06:54;7.50;99.30
70947;DHT22;58605;48.700;8.760;2024-02-15T02:09:24;7.30;99.90
70947;DHT22;58605;48.700;8.760;2024-02-15T02:11:51;7.20;99.90
70947;DHT22;58605;48.700;8.760;2024-02-15T02:14:19;7.30;99.90
70947;DHT22;58605;48.700;8.760;2024-02-15T02:16:46;7.30;99.90
70947;DHT22;58605;48.700;8.760;2024-02-15T02:19:12;7.40;99.90
70947;DHT22;58605;48.700;8.760;2024-02-15T02:21:39;7.50;99.90
70947;DHT22;58605;48.700;8.760;2024-02-15T02:24:13;7.50;98.30
70947;DHT22;58605;48.700;8.760;2024-02-15T02:26:41;7.30;97.00
70947;DHT22;58605;48.700;8.760;2024-02-15T02:29:08;7.30;97.70
70947;DHT22;58605;48.700;8.760;2024-02-15T02:31:34;7.30;97.60
70947;DHT22;58605;48.700;8.760;2024-02-15T02:34:00;7.40;97.60
70947;DHT22;58605;48.700;8.760;2024-02-15T02:36:26;7.50;97.50
70947;DHT22;58605;48.700;8.760;2024-02-15T02:38:53;7.60;96.50
70947;DHT22;58605;48.700;8.760;2024-02-15T02:41:19;7.70;95.90
70947;DHT22;58605;48.700;8.760;2024-02-15T02:43:47;7.60;95.70
70947;DHT22;58605;48.700;8.760;2024-02-15T02:46:13;7.70;95.50
70947;DHT22;58605;48.700;8.760;2024-02-15T02:48:39;7.70;95.80
70947;DHT22;58605;48.700;8.760;2024-02-15T02:51:06;7.50;96.50
70947;DHT22;58605;48.700;8.760;2024-02-15T02:53:33;7.30;96.40
70947;DHT22;58605;48.700;8.760;2024-02-15T02:55:59;7.00;96.20
70947;DHT22;58605;48.700;8.760;2024-02-15T02:58:26;6.80;97.10
70947;DHT22;58605;48.700;8.760;2024-02-15T03:00:53;6.60;98.00
70947;DHT22;58605;48.700;8.760;2024-02-15T03:03:20;6.50;98.20
70947;DHT22;58605;48.700;8.760;2024-02-15T03:05:46;6.30;98.70
70947;DHT22;58605;48.700;8.760;2024-02-15T03:08:12;6.10;98.90
70947;DHT22;58605;48.700;8.760;2024-02-15T03:10:38;6.00;99.40
70947;DHT22;58605;48.700;8.760;2024-02-15T03:13:06;6.00;99.80
70947;DHT22;58605;48.700;8.760;2024-02-15T03:15:34;5.80;99.90
70947;DHT22;58605;48.700;8.760;2024-02-15T03:18:03;5.80;99.90
70947;DHT22;58605;48.700;8.760;2024-02-15T03:20:38;5.70;99.90
70947;DHT22;58605;48.700;8.760;2024-02-15T03:23:11;5.70;99.90
70947;DHT22;58605;48.700;8.760;2024-02-15T03:25:37;5.70;99.90
70947;DHT22;58605;48.700;8.760;2024-02-15T03:28:04;5.80;99.90
70947;DHT22;58605;48.700;8.760;2024-02-15T03:30:31;5.80;99.90
70947;DHT22;58605;48.700;8.760;2024-02-15T03:32:58;5.80;99.50
70947;DHT22;58605;48.700;8.760;2024-02-15T03:35:27;5.70;99.30
70947;DHT22;58605;48.700;8.760;2024-02-15T03:37:57;5.70;99.90
70947;DHT22;58605;48.700;8.760;2024-02-15T03:40:24;5.60;99.90
70947;DHT22;58605;48.700;8.760;2024-02-15T03:42:52;5.50;99.90
70947;DHT22;58605;48.700;8.760;2024-02-15T03:45:19;5.40;99.90
70947;DHT22;58605;48.700;8.760;2024-02-15T03:47:45;5.30;99.90
70947;DHT22;58605;48.700;8.760;2024-02-15T03:50:12;5.40;99.90
70947;DHT22;58605;48.700;8.760;2024-02-15T03:52:42;5.40;99.90
70947;DHT22;58605;48.700;8.760;2024-02-15T03:55:09;5.30;99.90
70947;DHT22;58605;48.700;8.760;2024-02-15T03:57:38;5.40;99.90
70947;DHT22;58605;48.700;8.760;2024-02-15T04:00:07;5.40;99.90
70947;DHT22;58605;48.700;8.760;2024-02-15T04:02:34;5.40;99.90
70947;DHT22;58605;48.700;8.760;2024-02-15T04:05:01;5.50;99.90
70947;DHT22;58605;48.700;8.760;2024-02-15T04:07:30;5.60;99.90
70947;DHT22;58605;48.700;8.760;2024-02-15T04:09:58;5.60;99.90
70947;DHT22;58605;48.700;8.760;2024-02-15T04:12:26;5.70;99.90
70947;DHT22;58605;48.700;8.760;2024-02-15T04:14:53;5.80;99.90
70947;DHT22;58605;48.700;8.760;2024-02-15T04:17:20;5.80;99.90
70947;DHT22;58605;48.700;8.760;2024-02-15T04:19:48;5.80;99.90
70947;DHT22;58605;48.700;8.760;2024-02-15T04:22:16;5.90;99.90
70947;DHT22;58605;48.700;8.760;2024-02-15T04:24:42;5.90;99.90
70947;DHT22;58605;48.700;8.760;2024-02-15T04:27:09;5.90;99.90
70947;DHT22;58605;48.700;8.760;2024-02-15T04:29:40;5.90;99.90
70947;DHT22;58605;48.700;8.760;2024-02-15T04:32:07;6.00;99.90
70947;DHT22;58605;48.700;8.760;2024-02-15T04:34:34;6.10;99.90
70947;DHT22;58605;48.700;8.760;2024-02-15T04:37:00;6.10;99.90
70947;DHT22;58605;48.700;8.760;2024-02-15T04:39:32;6.20;99.90
70947;DHT22;58605;48.700;8.760;2024-02-15T04:41:58;6.20;99.90
70947;DHT22;58605;48.700;8.760;2024-02-15T04:44:25;6.20;99.90
70947;DHT22;58605;48.700;8.760;2024-02-15T04:46:53;6.20;99.90
70947;DHT22;58605;48.700;8.760;2024-02-15T04:49:19;6.20;99.90
70947;DHT22;58605;48.700;8.760;2024-02-15T04:51:45;6.30;99.90
70947;DHT22;58605;48.700;8.760;2024-02-15T04:54:13;6.40;99.90
70947;DHT22;58605;48.700;8.760;2024-02-15T04:56:39;6.30;99.90
70947;DHT22;58605;48.700;8.760;2024-02-15T04:59:05;6.30;99.90
70947;DHT22;58605;48.700;8.760;2024-02-15T05:01:36;6.20;99.90
70947;DHT22;58605;48.700;8.760;2024-02-15T05:04:02;6.20;99.90
70947;DHT22;58605;48.700;8.760;2024-02-15T05:06:32;6.20;99.90
70947;DHT22;58605;48.700;8.760;2024-02-15T05:08:58;6.10;99.90
70947;DHT22;58605;48.700;8.760;2024-02-15T05:11:26;6.10;99.90
70947;DHT22;58605;48.700;8.760;2024-02-15T05:13:52;6.00;99.90
70947;DHT22;58605;48.700;8.760;2024-02-15T05:16:18;6.00;99.90
70947;DHT22;58605;48.700;8.760;2024-02-15T05:18:46;5.90;99.90
70947;DHT22;58605;48.700;8.760;2024-02-15T05:21:12;5.80;99.90
70947;DHT22;58605;48.700;8.760;2024-02-15T05:23:39;5.80;99.90
70947;DHT22;58605;48.700;8.760;2024-02-15T05:26:06;5.80;99.90
70947;DHT22;58605;48.700;8.760;2024-02-15T05:28:32;5.70;99.90
70947;DHT22;58605;48.700;8.760;2024-02-15T05:31:11;5.70;99.90
70947;DHT22;58605;48.700;8.760;2024-02-15T05:33:38;5.80;99.90
70947;DHT22;58605;48.700;8.760;2024-02-15T05:36:10;5.80;99.90
70947;DHT22;58605;48.700;8.760;2024-02-15T05:38:36;5.70;99.90
70947;DHT22;58605;48.700;8.760;2024-02-15T05:41:03;5.70;99.90
70947;DHT22;58605;48.700;8.760;2024-02-15T05:43:29;5.70;99.90
70947;DHT22;58605;48.700;8.760;2024-02-15T05:45:56;5.70;99.90
70947;DHT22;58605;48.700;8.760;2024-02-15T05:48:24;5.70;99.90
70947;DHT22;58605;48.700;8.760;2024-02-15T05:50:50;5.80;99.90
70947;DHT22;58605;48.700;8.760;2024-02-15T05:53:18;5.80;99.90
70947;DHT22;58605;48.700;8.760;2024-02-15T05:55:44;5.90;99.90
70947;DHT22;58605;48.700;8.760;2024-02-15T05:58:10;6.00;99.90
70947;DHT22;58605;48.700;8.760;2024-02-15T06:00:37;6.00;99.90
70947;DHT22;58605;48.700;8.760;2024-02-15T06:03:04;5.90;99.90
70947;DHT22;58605;48.700;8.760;2024-02-15T06:05:31;6.00;99.90
70947;DHT22;58605;48.700;8.760;2024-02-15T06:08:00;5.90;99.90
70947;DHT22;58605;48.700;8.760;2024-02-15T06:10:28;6.00;99.90
70947;DHT22;58605;48.700;8.760;2024-02-15T06:12:56;6.20;99.90
70947;DHT22;58605;48.700;8.760;2024-02-15T06:15:22;6.20;99.20
70947;DHT22;58605;48.700;8.760;2024-02-15T06:17:49;6.10;98.80
70947;DHT22;58605;48.700;8.760;2024-02-15T06:20:16;5.90;99.20
70947;DHT22;58605;48.700;8.760;2024-02-15T06:22:46;5.60;99.70
70947;DHT22;58605;48.700;8.760;2024-02-15T06:25:12;5.40;99.90
70947;DHT22;58605;48.700;8.760;2024-02-15T06:27:40;5.30;99.90
70947;DHT22;58605;48.700;8.760;2024-02-15T06:30:08;5.20;99.90
70947;DHT22;58605;48.700;8.760;2024-02-15T06:32:53;5.10;99.90
70947;DHT22;58605;48.700;8.760;2024-02-15T06:35:38;5.00;99.90
70947;DHT22;58605;48.700;8.760;2024-02-15T06:38:23;4.90;99.90
70947;DHT22;58605;48.700;8.760;2024-02-15T06:41:08;4.90;99.90
70947;DHT22;58605;48.700;8.760;2024-02-15T06:43:36;5.00;99.90
70947;DHT22;58605;48.700;8.760;2024-02-15T06:46:05;5.10;99.90
70947;DHT22;58605;48.700;8.760;2024-02-15T06:48:32;5.10;99.90
70947;DHT22;58605;48.700;8.760;2024-02-15T06:50:58;5.00;99.90
70947;DHT22;58605;48.700;8.760;2024-02-15T06:53:24;5.00;99.90
70947;DHT22;58605;48.700;8.760;2024-02-15T06:55:50;5.00;99.90
70947;DHT22;58605;48.700;8.760;2024-02-15T06:58:16;5.10;99.90
70947;DHT22;58605;48.700;8.760;2024-02-15T07:00:45;5.20;99.90
70947;DHT22;58605;48.700;8.760;2024-02-15T07:03:11;5.40;99.90
70947;DHT22;58605;48.700;8.760;2024-02-15T07:05:37;5.50;99.90
70947;DHT22;58605;48.700;8.760;2024-02-15T07:08:08;5.60;99.90
70947;DHT22;58605;48.700;8.760;2024-02-15T07:10:39;5.60;99.90
70947;DHT22;58605;48.700;8.760;2024-02-15T07:13:05;5.50;99.90
70947;DHT22;58605;48.700;8.760;2024-02-15T07:15:32;5.40;99.90
70947;DHT22;58605;48.700;8.760;2024-02-15T07:18:00;5.30;99.90
70947;DHT22;58605;48.700;8.760;2024-02-15T07:20:27;5.40;99.90
70947;DHT22;58605;48.700;8.760;2024-02-15T07:22:53;5.50;99.90
70947;DHT22;58605;48.700;8.760;2024-02-15T07:25:19;5.70;99.90
70947;DHT22;58605;48.700;8.760;2024-02-15T07:27:45;5.80;99.90
70947;DHT22;58605;48.700;8.760;2024-02-15T07:30:12;5.70;99.90
70947;DHT22;58605;48.700;8.760;2024-02-15T07:32:39;5.60;99.90
70947;DHT22;58605;48.700;8.760;2024-02-15T07:35:07;5.60;99.90
70947;DHT22;58605;48.700;8.760;2024-02-15T07:37:33;5.50;99.90
70947;DHT22;58605;48.700;8.760;2024-02-15T07:40:00;5.60;99.90
70947;DHT22;58605;48.700;8.760;2024-02-15T07:42:26;5.60;99.90
70947;DHT22;58605;48.700;8.760;2024-02-15T07:44:52;5.40;99.90
70947;DHT22;58605;48.700;8.760;2024-02-15T07:47:18;5.40;99.90
70947;DHT22;58605;48.700;8.760;2024-02-15T07:49:46;5.40;99.90
70947;DHT22;58605;48.700;8.760;2024-02-15T07:52:21;5.40;99.90
70947;DHT22;58605;48.700;8.760;2024-02-15T07:54:47;5.30;99.90
70947;DHT22;58605;48.700;8.760;2024-02-15T07:57:14;5.30;99.90
70947;DHT22;58605;48.700;8.760;2024-02-15T07:59:47;5.20;99.90
70947;DHT22;58605;48.700;8.760;2024-02-15T08:02:20;5.20;99.90
70947;DHT22;58605;48.700;8.760;2024-02-15T08:04:48;5.20;99.90
70947;DHT22;58605;48.700;8.760;2024-02-15T08:07:14;5.30;99.90
70947;DHT22;58605;48.700;8.760;2024-02-15T08:09:42;5.40;99.90
70947;DHT22;58605;48.700;8.760;2024-02-15T08:12:09;5.50;99.90
70947;DHT22;58605;48.700;8.760;2024-02-15T08:14:35;5.60;99.90
70947;DHT22;58605;48.700;8.760;2024-02-15T08:17:01;5.70;99.90
70947;DHT22;58605;48.700;8.760;2024-02-15T08:19:28;5.70;99.90
70947;DHT22;58605;48.700;8.760;2024-02-15T08:21:54;5.60;99.90
70947;DHT22;58605;48.700;8.760;2024-02-15T08:24:22;5.50;99.90
70947;DHT22;58605;48.700;8.760;2024-02-15T08:26:49;5.60;99.90
70947;DHT22;58605;48.700;8.760;2024-02-15T08:29:15;5.80;99.90
70947;DHT22;58605;48.700;8.760;2024-02-15T08:31:41;5.90;99.90
70947;DHT22;58605;48.700;8.760;2024-02-15T08:34:08;5.80;99.90
70947;DHT22;58605;48.700;8.760;2024-02-15T08:36:36;5.80;99.90
70947;DHT22;58605;48.700;8.760;2024-02-15T08:39:03;5.90;99.90
70947;DHT22;58605;48.700;8.760;2024-02-15T08:41:30;5.90;99.90
70947;DHT22;58605;48.700;8.760;2024-02-15T08:43:59;6.00;99.90
70947;DHT22;58605;48.700;8.760;2024-02-15T08:46:27;6.10;99.90
70947;DHT22;58605;48.700;8.760;2024-02-15T08:48:53;6.20;99.90
70947;DHT22;58605;48.700;8.760;2024-02-15T08:51:19;6.30;99.90
70947;DHT22;58605;48.700;8.760;2024-02-15T08:53:47;6.40;99.90
70947;DHT22;58605;48.700;8.760;2024-02-15T08:56:13;6.50;99.90
70947;DHT22;58605;48.700;8.760;2024-02-15T08:58:39;6.70;99.90
70947;DHT22;58605;48.700;8.760;2024-02-15T09:01:07;6.80;99.90
70947;DHT22;58605;48.700;8.760;2024-02-15T09:03:33;7.00;99.90
70947;DHT22;58605;48.700;8.760;2024-02-15T09:06:00;7.00;99.90
70947;DHT22;58605;48.700;8.760;2024-02-15T09:08:29;7.10;99.90
70947;DHT22;58605;48.700;8.760;2024-02-15T09:10:56;7.20;99.90
70947;DHT22;58605;48.700;8.760;2024-02-15T09:13:23;7.30;99.90
70947;DHT22;58605;48.700;8.760;2024-02-15T09:15:50;7.30;99.90
70947;DHT22;58605;48.700;8.760;2024-02-15T09:18:17;7.30;99.90
70947;DHT22;58605;48.700;8.760;2024-02-15T09:20:43;7.00;99.90
70947;DHT22;58605;48.700;8.760;2024-02-15T09:23:13;6.90;99.90
70947;DHT22;58605;48.700;8.760;2024-02-15T09:25:41;6.90;99.90
70947;DHT22;58605;48.700;8.760;2024-02-15T09:28:10;6.90;99.90
70947;DHT22;58605;48.700;8.760;2024-02-15T09:30:36;6.90;99.90
70947;DHT22;58605;48.700;8.760;2024-02-15T09:33:03;6.90;99.90
70947;DHT22;58605;48.700;8.760;2024-02-15T09:35:33;7.00;99.90
70947;DHT22;58605;48.700;8.760;2024-02-15T09:37:59;7.00;99.90
70947;DHT22;58605;48.700;8.760;2024-02-15T09:40:26;7.00;99.90
70947;DHT22;58605;48.700;8.760;2024-02-15T09:42:54;7.10;99.90
70947;DHT22;58605;48.700;8.760;2024-02-15T09:45:21;7.10;99.90
70947;DHT22;58605;48.700;8.760;2024-02-15T09:47:50;7.20;99.90
70947;DHT22;58605;48.700;8.760;2024-02-15T09:50:18;7.20;99.90
70947;DHT22;58605;48.700;8.760;2024-02-15T09:52:48;7.30;99.90
70947;DHT22;58605;48.700;8.760;2024-02-15T09:55:15;7.30;99.90
70947;DHT22;58605;48.700;8.760;2024-02-15T09:57:43;7.30;99.90
70947;DHT22;58605;48.700;8.760;2024-02-15T10:00:11;7.30;99.90
70947;DHT22;58605;48.700;8.760;2024-02-15T10:02:41;7.40;99.90
70947;DHT22;58605;48.700;8.760;2024-02-15T10:05:13;7.40;99.90
70947;DHT22;58605;48.700;8.760;2024-02-15T10:07:40;7.40;99.90
70947;DHT22;58605;48.700;8.760;2024-02-15T10:10:18;7.50;99.90
70947;DHT22;58605;48.700;8.760;2024-02-15T10:12:45;7.60;99.90
70947;DHT22;58605;48.700;8.760;2024-02-15T10:15:30;7.60;99.90
70947;DHT22;58605;48.700;8.760;2024-02-15T10:17:57;7.60;99.90
70947;DHT22;58605;48.700;8.760;2024-02-15T10:20:27;7.60;99.90
70947;DHT22;58605;48.700;8.760;2024-02-15T10:22:53;7.60;99.90
70947;DHT22;58605;48.700;8.760;2024-02-15T10:25:40;7.70;99.90
70947;DHT22;58605;48.700;8.760;2024-02-15T10:28:07;7.70;99.90
70947;DHT22;58605;48.700;8.760;2024-02-15T10:30:34;7.70;99.90
70947;DHT22;58605;48.700;8.760;2024-02-15T10:33:01;7.80;99.90
70947;DHT22;58605;48.700;8.760;2024-02-15T10:35:28;7.80;99.90
70947;DHT22;58605;48.700;8.760;2024-02-15T10:38:05;7.90;99.90
70947;DHT22;58605;48.700;8.760;2024-02-15T10:40:33;7.90;99.90
70947;DHT22;58605;48.700;8.760;2024-02-15T10:43:02;7.90;99.90
70947;DHT22;58605;48.700;8.760;2024-02-15T10:45:30;8.00;99.90
70947;DHT22;58605;48.700;8.760;2024-02-15T10:47:57;8.00;99.90
70947;DHT22;58605;48.700;8.760;2024-02-15T10:50:23;8.10;99.90
70947;DHT22;58605;48.700;8.760;2024-02-15T10:52:56;8.00;99.80
70947;DHT22;58605;48.700;8.760;2024-02-15T10:55:37;8.00;99.90
70947;DHT22;58605;48.700;8.760;2024-02-15T10:58:07;8.00;99.80
70947;DHT22;58605;48.700;8.760;2024-02-15T11:00:33;8.10;99.90
70947;DHT22;58605;48.700;8.760;2024-02-15T11:03:04;8.10;99.90
70947;DHT22;58605;48.700;8.760;2024-02-15T11:05:34;8.10;99.90
70947;DHT22;58605;48.700;8.760;2024-02-15T11:08:03;8.10;99.90
70947;DHT22;58605;48.700;8.760;2024-02-15T11:10:30;8.10;99.80
70947;DHT22;58605;48.700;8.760;2024-02-15T11:12:57;8.20;99.70
70947;DHT22;58605;48.700;8.760;2024-02-15T11:15:45;8.10;99.80
70947;DHT22;58605;48.700;8.760;2024-02-15T11:18:42;8.20;99.80
70947;DHT22;58605;48.700;8.760;2024-02-15T11:21:10;8.20;99.80
70947;DHT22;58605;48.700;8.760;2024-02-15T11:23:37;8.20;99.90
70947;DHT22;58605;48.700;8.760;2024-02-15T11:26:04;8.10;99.90
70947;DHT22;58605;48.700;8.760;2024-02-15T11:28:37;8.10;99.90
70947;DHT22;58605;48.700;8.760;2024-02-15T11:31:09;8.10;99.90
70947;DHT22;58605;48.700;8.760;2024-02-15T11:33:35;8.20;99.90
70947;DHT22;58605;48.700;8.760;2024-02-15T11:36:02;8.10;99.90
70947;DHT22;58605;48.700;8.760;2024-02-15T11:38:32;8.00;99.90
70947;DHT22;58605;48.700;8.760;2024-02-15T11:41:02;8.10;99.90
70947;DHT22;58605;48.700;8.760;2024-02-15T11:43:49;8.00;99.90
70947;DHT22;58605;48.700;8.760;2024-02-15T11:46:22;8.10;99.90
70947;DHT22;58605;48.700;8.760;2024-02-15T11:48:51;8.00;99.90
70947;DHT22;58605;48.700;8.760;2024-02-15T11:51:28;8.10;99.90
70947;DHT22;58605;48.700;8.760;2024-02-15T11:54:05;8.10;99.90
70947;DHT22;58605;48.700;8.760;2024-02-15T11:57:07;8.10;99.90
70947;DHT22;58605;48.700;8.760;2024-02-15T11:59:40;8.10;99.90
70947;DHT22;58605;48.700;8.760;2024-02-15T12:02:20;8.20;99.90
70947;DHT22;58605;48.700;8.760;2024-02-15T12:05:06;8.20;99.90
70947;DHT22;58605;48.700;8.760;2024-02-15T12:07:50;8.20;99.90
70947;DHT22;58605;48.700;8.760;2024-02-15T12:10:35;8.20;99.90
70947;DHT22;58605;48.700;8.760;2024-02-15T12:13:19;8.20;99.90
70947;DHT22;58605;48.700;8.760;2024-02-15T12:16:04;8.20;99.90
70947;DHT22;58605;48.700;8.760;2024-02-15T12:18:50;8.20;99.90
70947;DHT22;58605;48.700;8.760;2024-02-15T12:21:22;8.20;99.90
70947;DHT22;58605;48.700;8.760;2024-02-15T12:23:49;8.20;99.90
70947;DHT22;58605;48.700;8.760;2024-02-15T12:26:19;8.20;99.90
70947;DHT22;58605;48.700;8.760;2024-02-15T12:28:50;8.20;99.90
70947;DHT22;58605;48.700;8.760;2024-02-15T12:31:16;8.20;99.90
70947;DHT22;58605;48.700;8.760;2024-02-15T12:33:43;8.10;99.90
70947;DHT22;58605;48.700;8.760;2024-02-15T12:36:11;8.20;99.90
70947;DHT22;58605;48.700;8.760;2024-02-15T12:38:37;8.20;99.90
70947;DHT22;58605;48.700;8.760;2024-02-15T12:41:16;8.20;99.90
70947;DHT22;58605;48.700;8.760;2024-02-15T12:43:42;8.20;99.90
70947;DHT22;58605;48.700;8.760;2024-02-15T12:46:08;8.30;99.90
70947;DHT22;58605;48.700;8.760;2024-02-15T12:48:35;8.30;99.90
70947;DHT22;58605;48.700;8.760;2024-02-15T12:51:14;8.30;99.90
70947;DHT22;58605;48.700;8.760;2024-02-15T12:53:41;8.20;99.90
70947;DHT22;58605;48.700;8.760;2024-02-15T12:56:07;8.20;99.90
70947;DHT22;58605;48.700;8.760;2024-02-15T12:58:35;8.30;99.90
70947;DHT22;58605;48.700;8.760;2024-02-15T13:01:01;8.30;99.90
70947;DHT22;58605;48.700;8.760;2024-02-15T13:03:30;8.30;99.90
70947;DHT22;58605;48.700;8.760;2024-02-15T13:05:56;8.30;99.90
70947;DHT22;58605;48.700;8.760;2024-02-15T13:08:24;8.30;99.90
70947;DHT22;58605;48.700;8.760;2024-02-15T13:10:50;8.20;99.90
70947;DHT22;58605;48.700;8.760;2024-02-15T13:13:17;8.30;99.90
70947;DHT22;58605;48.700;8.760;2024-02-15T13:15:43;8.30;99.90
70947;DHT22;58605;48.700;8.760;2024-02-15T13:18:09;8.20;99.90
70947;DHT22;58605;48.700;8.760;2024-02-15T13:20:36;8.30;99.90
70947;DHT22;58605;48.700;8.760;2024-02-15T13:23:04;8.30;99.90
70947;DHT22;58605;48.700;8.760;2024-02-15T13:25:52;8.30;99.90
70947;DHT22;58605;48.700;8.760;2024-02-15T13:28:18;8.30;99.90
70947;DHT22;58605;48.700;8.760;2024-02-15T13:30:45;8.30;99.90
70947;DHT22;58605;48.700;8.760;2024-02-15T13:33:11;8.40;99.90
70947;DHT22;58605;48.700;8.760;2024-02-15T13:35:37;8.40;99.90
70947;DHT22;58605;48.700;8.760;2024-02-15T13:38:03;8.30;99.90
70947;DHT22;58605;48.700;8.760;2024-02-15T13:40:30;8.40;99.90
70947;DHT22;58605;48.700;8.760;2024-02-15T13:42:59;8.40;99.90
70947;DHT22;58605;48.700;8.760;2024-02-15T13:45:29;8.50;99.90
70947;DHT22;58605;48.700;8.760;2024-02-15T13:47:57;8.50;99.90
70947;DHT22;58605;48.700;8.760;2024-02-15T13:50:23;8.40;99.90
70947;DHT22;58605;48.700;8.760;2024-02-15T13:52:50;8.40;99.90
70947;DHT22;58605;48.700;8.760;2024-02-15T13:55:17;8.40;99.90
70947;DHT22;58605;48.700;8.760;2024-02-15T13:57:45;8.40;99.90
70947;DHT22;58605;48.700;8.760;2024-02-15T14:00:16;8.40;99.90
70947;DHT22;58605;48.700;8.760;2024-02-15T14:02:49;8.40;99.90
70947;DHT22;58605;48.700;8.760;2024-02-15T14:05:22;8.40;99.90
70947;DHT22;58605;48.700;8.760;2024-02-15T14:07:52;8.50;99.90
70947;DHT22;58605;48.700;8.760;2024-02-15T14:10:21;8.50;99.90
70947;DHT22;58605;48.700;8.760;2024-02-15T14:12:47;8.50;99.90
70947;DHT22;58605;48.700;8.760;2024-02-15T14:15:15;8.50;99.90
70947;DHT22;58605;48.700;8.760;2024-02-15T14:17:43;8.60;99.90
70947;DHT22;58605;48.700;8.760;2024-02-15T14:20:11;8.60;99.90
70947;DHT22;58605;48.700;8.760;2024-02-15T14:22:40;8.50;99.90
70947;DHT22;58605;48.700;8.760;2024-02-15T14:25:07;8.50;99.90
70947;DHT22;58605;48.700;8.760;2024-02-15T14:27:33;8.50;99.90
70947;DHT22;58605;48.700;8.760;2024-02-15T14:29:59;8.50;99.90
70947;DHT22;58605;48.700;8.760;2024-02-15T14:32:45;8.60;99.90
70947;DHT22;58605;48.700;8.760;2024-02-15T14:35:30;8.60;99.90
70947;DHT22;58605;48.700;8.760;2024-02-15T14:37:58;8.50;99.90
70947;DHT22;58605;48.700;8.760;2024-02-15T14:40:24;8.50;99.90
70947;DHT22;58605;48.700;8.760;2024-02-15T14:42:50;8.50;99.90
70947;DHT22;58605;48.700;8.760;2024-02-15T14:45:16;8.50;99.90
70947;DHT22;58605;48.700;8.760;2024-02-15T14:47:42;8.60;99.90
70947;DHT22;58605;48.700;8.760;2024-02-15T14:50:10;8.60;99.90
70947;DHT22;58605;48.700;8.760;2024-02-15T14:52:38;8.60;99.90
70947;DHT22;58605;48.700;8.760;2024-02-15T14:55:05;8.60;99.90
70947;DHT22;58605;48.700;8.760;2024-02-15T14:57:33;8.70;99.90
70947;DHT22;58605;48.700;8.760;2024-02-15T14:59:59;8.70;99.90
70947;DHT22;58605;48.700;8.760;2024-02-15T15:02:25;8.70;99.90
70947;DHT22;58605;48.700;8.760;2024-02-15T15:04:52;8.70;99.90
70947;DHT22;58605;48.700;8.760;2024-02-15T15:07:45;8.70;99.90
70947;DHT22;58605;48.700;8.760;2024-02-15T15:10:30;8.70;99.90
70947;DHT22;58605;48.700;8.760;2024-02-15T15:13:14;8.70;99.80
70947;DHT22;58605;48.700;8.760;2024-02-15T15:15:40;8.70;99.90
70947;DHT22;58605;48.700;8.760;2024-02-15T15:18:07;8.70;99.90
70947;DHT22;58605;48.700;8.760;2024-02-15T15:20:33;8.70;99.90
70947;DHT22;58605;48.700;8.760;2024-02-15T15:23:01;8.80;99.90
70947;DHT22;58605;48.700;8.760;2024-02-15T15:25:27;8.70;99.80
70947;DHT22;58605;48.700;8.760;2024-02-15T15:27:54;8.70;99.90
70947;DHT22;58605;48.700;8.760;2024-02-15T15:30:22;8.70;99.90
70947;DHT22;58605;48.700;8.760;2024-02-15T15:32:48;8.80;99.90
70947;DHT22;58605;48.700;8.760;2024-02-15T15:35:15;8.80;99.90
70947;DHT22;58605;48.700;8.760;2024-02-15T15:37:43;8.80;99.80
70947;DHT22;58605;48.700;8.760;2024-02-15T15:40:11;8.70;99.80
70947;DHT22;58605;48.700;8.760;2024-02-15T15:42:39;8.70;99.80
70947;DHT22;58605;48.700;8.760;2024-02-15T15:45:06;8.70;99.90
70947;DHT22;58605;48.700;8.760;2024-02-15T15:47:34;8.70;99.90
70947;DHT22;58605;48.700;8.760;2024-02-15T15:50:00;8.70;99.90
70947;DHT22;58605;48.700;8.760;2024-02-15T15:52:26;8.70;99.90
70947;DHT22;58605;48.700;8.760;2024-02-15T15:54:55;8.70;99.90
70947;DHT22;58605;48.700;8.760;2024-02-15T15:57:24;8.70;99.90